Time;durP1;ratioP1;P1;durP2;ratioP2;P2;SDS_P1;SDS_P2;PMS_P1;PMS_P2;Temp;Humidity;BMP_temperature;BMP_pressure;BME280_temperature;BME280_humidity;BME280_pressure;Samples;Min_cycle;Max_cycle;Signal;HPM_P1;HPM_P2
2021/01/13 00:02:08;;;;;;;13.95;2.50;;;2.50;99.90;;;;;;5024744;28;20079;-83
2021/01/13 00:04:36;;;;;;;23.08;3.75;;;2.50;99.90;;;;;;5014825;28;20033;-83
2021/01/13 00:07:02;;;;;;;22.73;2.83;;;2.50;99.90;;;;;;5014732;28;20022;-84
2021/01/13 00:09:28;;;;;;;17.05;2.25;;;2.50;99.90;;;;;;5012122;28;20026;-84
2021/01/13 00:11:55;;;;;;;22.33;2.67;;;2.50;99.90;;;;;;5011812;28;20470;-83
2021/01/13 00:14:26;;;;;;;17.13;2.35;;;2.60;99.90;;;;;;5015797;28;20025;-83
2021/01/13 00:16:52;;;;;;;33.47;3.40;;;2.60;99.90;;;;;;5016287;28;20121;-83
2021/01/13 00:19:20;;;;;;;19.65;2.38;;;2.60;99.90;;;;;;5008511;28;20034;-83
2021/01/13 00:21:49;;;;;;;30.75;5.45;;;2.60;99.90;;;;;;5014935;28;20036;-83
2021/01/13 00:24:16;;;;;;;17.50;2.28;;;2.70;99.90;;;;;;4993604;28;20030;-83
2021/01/13 00:26:42;;;;;;;15.90;2.53;;;2.70;99.90;;;;;;4995430;28;20510;-84
2021/01/13 00:29:08;;;;;;;16.60;2.75;;;2.70;99.90;;;;;;4976760;28;20077;-83
2021/01/13 00:31:34;;;;;;;24.55;2.97;;;2.70;99.90;;;;;;4984814;28;20029;-84
2021/01/13 00:34:00;;;;;;;14.40;2.58;;;2.60;99.90;;;;;;4982606;28;20084;-84
2021/01/13 00:36:28;;;;;;;17.58;3.05;;;2.60;99.90;;;;;;4997299;28;20101;-83
2021/01/13 00:38:54;;;;;;;29.75;2.70;;;2.60;99.90;;;;;;4981606;28;20041;-84
2021/01/13 00:41:24;;;;;;;16.02;2.47;;;2.60;99.90;;;;;;4999609;28;20030;-83
2021/01/13 00:43:51;;;;;;;19.30;2.22;;;2.60;99.90;;;;;;4992679;28;20057;-84
2021/01/13 00:46:17;;;;;;;12.60;2.45;;;2.60;99.90;;;;;;5003791;28;20034;-83
2021/01/13 00:48:43;;;;;;;18.35;2.05;;;2.50;99.90;;;;;;4998253;28;20138;-83
2021/01/13 00:51:09;;;;;;;13.57;2.38;;;2.60;99.90;;;;;;5009778;28;20056;-83
2021/01/13 00:53:34;;;;;;;15.48;2.70;;;2.60;99.90;;;;;;4983298;28;20030;-83
2021/01/13 00:56:01;;;;;;;22.25;2.33;;;2.60;99.90;;;;;;4987785;28;20041;-83
2021/01/13 00:58:27;;;;;;;14.88;2.70;;;2.60;99.90;;;;;;4988733;28;20041;-83
2021/01/13 01:00:53;;;;;;;18.17;2.40;;;2.50;99.90;;;;;;4985977;28;20106;-83
2021/01/13 01:03:19;;;;;;;23.52;2.35;;;2.60;99.90;;;;;;4980725;28;20432;-83
2021/01/13 01:05:45;;;;;;;28.15;3.60;;;2.50;99.90;;;;;;4985618;28;20029;-83
2021/01/13 01:08:10;;;;;;;21.52;3.00;;;2.50;99.90;;;;;;4988375;28;20028;-83
2021/01/13 01:10:38;;;;;;;26.05;2.78;;;2.50;99.90;;;;;;4990766;28;20072;-83
2021/01/13 01:13:04;;;;;;;20.38;2.13;;;2.50;99.90;;;;;;4992630;28;20042;-83
2021/01/13 01:15:30;;;;;;;18.55;2.88;;;2.50;99.90;;;;;;4985783;28;20025;-83
2021/01/13 01:17:56;;;;;;;27.35;3.15;;;2.50;99.90;;;;;;4986504;28;20038;-83
2021/01/13 01:20:22;;;;;;;19.83;3.15;;;2.40;99.90;;;;;;4981686;28;20029;-83
2021/01/13 01:22:53;;;;;;;21.58;2.60;;;2.40;99.90;;;;;;4984005;28;20026;-84
2021/01/13 01:25:19;;;;;;;;;;;2.40;99.90;;;;;;4984467;28;20080;-83
2021/01/13 01:27:47;;;;;;;17.08;1.92;;;2.40;99.90;;;;;;5006689;28;19917;-83
2021/01/13 01:30:13;;;;;;;21.92;2.67;;;2.30;99.90;;;;;;5006755;28;20026;-83
2021/01/13 01:32:38;;;;;;;25.30;3.20;;;2.30;99.90;;;;;;5003715;28;20491;-83
2021/01/13 01:35:05;;;;;;;23.42;3.83;;;2.30;99.90;;;;;;5003796;28;20027;-83
2021/01/13 01:37:35;;;;;;;19.63;3.47;;;2.20;99.90;;;;;;4995701;28;20042;-83
2021/01/13 01:40:03;;;;;;;13.60;2.50;;;2.30;99.90;;;;;;5005590;28;20022;-83
2021/01/13 01:42:28;;;;;;;31.10;2.70;;;2.40;99.90;;;;;;5009888;28;20034;-83
2021/01/13 01:44:55;;;;;;;36.78;3.50;;;2.40;99.90;;;;;;5009761;28;20504;-83
2021/01/13 01:47:52;;;;;;;38.72;3.85;;;2.40;99.90;;;;;;5001453;28;20096;-83
2021/01/13 01:50:22;;;;;;;32.22;2.67;;;2.40;99.90;;;;;;5001816;28;20022;-83
2021/01/13 01:53:01;;;;;;;21.77;2.78;;;2.40;99.90;;;;;;5008319;28;20056;-83
2021/01/13 01:55:28;;;;;;;20.55;2.83;;;2.40;99.90;;;;;;4995839;28;20022;-83
2021/01/13 01:58:02;;;;;;;26.48;3.05;;;2.40;99.90;;;;;;5017309;28;20420;-83
2021/01/13 02:00:31;;;;;;;30.48;2.50;;;2.40;99.90;;;;;;5009461;28;20022;-81
2021/01/13 02:03:11;;;;;;;32.15;2.50;;;2.40;99.90;;;;;;5001274;28;20026;-81
2021/01/13 02:05:37;;;;;;;34.10;2.90;;;2.40;99.90;;;;;;4994221;28;20030;-81
2021/01/13 02:08:02;;;;;;;26.27;2.22;;;2.40;99.90;;;;;;4996688;28;20483;-81
2021/01/13 02:10:28;;;;;;;23.90;5.00;;;2.50;99.90;;;;;;4999298;28;20036;-81
2021/01/13 02:13:05;;;;;;;29.85;4.63;;;2.60;99.90;;;;;;5013656;28;20026;-82
2021/01/13 02:15:30;;;;;;;29.75;3.90;;;2.60;99.90;;;;;;5013865;28;20037;-81
2021/01/13 02:18:02;;;;;;;39.75;2.92;;;2.70;99.90;;;;;;5006099;28;20030;-80
2021/01/13 02:20:30;;;;;;;25.15;2.80;;;2.70;99.90;;;;;;5003414;28;20029;-81
2021/01/13 02:23:01;;;;;;;16.65;2.25;;;2.70;99.90;;;;;;5001989;28;20463;-81
2021/01/13 02:25:27;;;;;;;;;;;2.70;99.90;;;;;;4997265;28;20533;-81
2021/01/13 02:28:07;;;;;;;20.75;2.60;;;2.70;99.90;;;;;;5016474;28;19929;-81
2021/01/13 02:30:43;;;;;;;20.15;3.20;;;2.80;99.90;;;;;;5009166;28;20027;-81
2021/01/13 02:33:24;;;;;;;12.70;1.50;;;2.80;99.90;;;;;;4998761;28;20373;-81
2021/01/13 02:36:08;;;;;;;17.05;2.13;;;2.80;99.90;;;;;;5000356;28;20096;-81
2021/01/13 02:38:37;;;;;;;15.65;2.33;;;2.80;99.90;;;;;;5007225;28;20038;-81
2021/01/13 02:41:12;;;;;;;12.38;2.10;;;2.70;99.90;;;;;;5016331;28;20021;-81
2021/01/13 02:43:57;;;;;;;13.50;2.03;;;2.70;99.90;;;;;;5006597;28;20614;-81
2021/01/13 02:47:01;;;;;;;15.52;2.20;;;2.70;99.90;;;;;;5009838;28;20076;-83
2021/01/13 02:49:30;;;;;;;17.73;3.15;;;2.70;99.90;;;;;;4997437;28;20023;-83
2021/01/13 02:51:57;;;;;;;24.52;2.72;;;2.60;99.90;;;;;;4996964;28;20023;-81
2021/01/13 02:54:40;;;;;;;11.18;2.13;;;2.60;99.90;;;;;;5005177;28;20471;-80
2021/01/13 02:57:14;;;;;;;18.98;2.03;;;2.60;99.90;;;;;;5006351;28;20038;-83
2021/01/13 02:59:44;;;;;;;25.00;2.08;;;2.60;99.90;;;;;;5008976;28;20121;-83
2021/01/13 03:02:10;;;;;;;18.88;1.35;;;2.60;99.90;;;;;;5012519;28;20037;-81
2021/01/13 03:04:40;;;;;;;24.52;2.50;;;2.60;99.90;;;;;;4995720;28;20034;-81
2021/01/13 03:07:14;;;;;;;26.92;2.22;;;2.60;99.90;;;;;;5002910;28;20029;-83
2021/01/13 03:09:46;;;;;;;15.30;1.92;;;2.60;99.90;;;;;;5004099;28;20494;-82
2021/01/13 03:12:27;;;;;;;14.77;2.22;;;2.60;99.90;;;;;;5003214;28;20022;-80
2021/01/13 03:14:57;;;;;;;24.35;2.50;;;2.60;99.90;;;;;;5011974;28;20120;-83
2021/01/13 03:17:29;;;;;;;27.05;4.03;;;2.60;99.90;;;;;;5004591;28;20069;-83
2021/01/13 03:20:10;;;;;;;15.45;2.00;;;2.60;99.90;;;;;;5004649;28;20495;-83
2021/01/13 03:23:05;;;;;;;19.37;2.43;;;2.60;99.90;;;;;;4999719;28;20076;-83
2021/01/13 03:25:37;;;;;;;13.70;2.08;;;2.70;99.90;;;;;;4924307;28;20043;-83
2021/01/13 03:28:05;;;;;;;27.77;3.10;;;2.70;99.90;;;;;;4927597;29;20051;-83
2021/01/13 03:30:33;;;;;;;34.35;3.20;;;2.80;99.90;;;;;;4929727;29;20035;-83
2021/01/13 03:33:01;;;;;;;17.80;1.85;;;2.80;99.90;;;;;;4929488;29;20035;-83
2021/01/13 03:35:44;;;;;;;14.35;1.65;;;2.90;99.90;;;;;;4933276;29;20114;-83
2021/01/13 03:38:18;;;;;;;10.70;1.80;;;2.90;99.90;;;;;;4924709;29;20070;-83
2021/01/13 03:40:46;;;;;;;15.75;1.60;;;2.90;99.90;;;;;;4932807;29;20118;-83
2021/01/13 03:43:15;;;;;;;15.70;2.03;;;2.90;99.90;;;;;;4923875;29;20152;-84
2021/01/13 03:45:41;;;;;;;24.75;2.38;;;2.90;99.90;;;;;;4921293;29;20445;-83
2021/01/13 03:48:25;;;;;;;24.05;2.15;;;2.80;99.90;;;;;;4929499;29;20190;-84
2021/01/13 03:50:52;;;;;;;21.90;2.17;;;2.80;99.90;;;;;;4935790;29;20020;-84
2021/01/13 03:53:20;;;;;;;25.90;2.95;;;2.80;99.90;;;;;;4936595;28;20049;-84
2021/01/13 03:55:49;;;;;;;29.33;2.58;;;2.80;99.90;;;;;;4939195;29;20035;-85
2021/01/13 03:58:31;;;;;;;17.45;2.55;;;2.90;99.90;;;;;;4931766;29;20042;-84
2021/01/13 04:01:01;;;;;;;30.85;2.38;;;2.80;99.90;;;;;;4926582;29;20054;-84
2021/01/13 04:03:33;;;;;;;21.13;2.15;;;2.80;99.90;;;;;;4999657;28;20030;-84
2021/01/13 04:06:10;;;;;;;15.55;2.05;;;2.80;99.90;;;;;;4994470;28;20038;-84
2021/01/13 04:08:45;;;;;;;6.88;2.25;;;2.80;99.90;;;;;;4995853;28;20490;-84
2021/01/13 04:11:10;;;;;;;14.63;1.45;;;2.70;99.90;;;;;;5010061;28;20034;-84
2021/01/13 04:13:36;;;;;;;18.25;1.60;;;2.60;99.90;;;;;;5008307;28;20037;-84
2021/01/13 04:16:03;;;;;;;11.95;1.35;;;2.60;99.90;;;;;;5018903;28;20040;-84
2021/01/13 04:18:30;;;;;;;9.27;1.77;;;2.50;99.90;;;;;;5000791;28;20115;-84
2021/01/13 04:20:56;;;;;;;8.73;1.95;;;2.50;99.90;;;;;;4995205;28;20029;-81
2021/01/13 04:23:23;;;;;;;12.02;1.95;;;2.50;99.90;;;;;;4998511;28;20036;-81
2021/01/13 04:25:49;;;;;;;10.15;1.73;;;2.50;99.90;;;;;;4992835;28;20421;-81
2021/01/13 04:28:15;;;;;;;8.85;2.00;;;2.50;99.90;;;;;;5013698;28;20048;-81
2021/01/13 04:30:41;;;;;;;12.90;2.30;;;2.50;99.90;;;;;;5013203;28;20038;-81
2021/01/13 04:33:07;;;;;;;13.38;2.30;;;2.50;99.90;;;;;;4998339;28;20066;-81
2021/01/13 04:35:34;;;;;;;19.42;2.17;;;2.50;99.90;;;;;;5005802;28;20026;-81
2021/01/13 04:38:02;;;;;;;17.70;3.20;;;2.40;99.90;;;;;;4997149;28;20042;-81
2021/01/13 04:40:36;;;;;;;19.90;3.15;;;2.40;99.90;;;;;;5006484;28;20022;-80
2021/01/13 04:43:07;;;;;;;13.57;2.28;;;2.40;99.90;;;;;;5005776;28;20025;-81
2021/01/13 04:45:41;;;;;;;23.58;2.55;;;2.50;99.90;;;;;;5002705;28;20200;-81
2021/01/13 04:48:15;;;;;;;20.48;4.75;;;2.50;99.90;;;;;;4993362;28;20162;-81
2021/01/13 04:50:51;;;;;;;9.20;1.95;;;2.50;99.90;;;;;;4997695;28;20368;-81
2021/01/13 04:53:22;;;;;;;28.27;2.05;;;2.50;99.90;;;;;;4997845;28;20026;-81
2021/01/13 04:55:55;;;;;;;13.30;2.65;;;2.50;99.90;;;;;;5001643;28;20036;-81
2021/01/13 04:58:21;;;;;;;34.20;5.85;;;2.60;99.90;;;;;;5021033;28;20045;-81
2021/01/13 05:01:11;;;;;;;13.20;2.60;;;2.50;99.90;;;;;;5010422;28;20068;-81
2021/01/13 05:03:41;;;;;;;16.02;2.47;;;2.60;99.90;;;;;;4997854;28;20023;-81
2021/01/13 05:06:15;;;;;;;19.85;2.15;;;2.50;99.90;;;;;;5000665;28;20018;-81
2021/01/13 05:08:46;;;;;;;20.65;2.30;;;2.50;99.90;;;;;;4993485;28;20030;-81
2021/01/13 05:11:13;;;;;;;12.85;2.05;;;2.50;99.90;;;;;;5009169;28;20423;-81
2021/01/13 05:13:46;;;;;;;7.35;2.08;;;2.60;99.90;;;;;;5008477;28;20120;-81
2021/01/13 05:16:13;;;;;;;18.48;2.30;;;2.60;99.90;;;;;;4996013;28;20475;-81
2021/01/13 05:18:54;;;;;;;11.40;1.98;;;2.60;99.90;;;;;;4997349;28;20042;-81
2021/01/13 05:21:27;;;;;;;19.73;2.75;;;2.60;99.90;;;;;;5006199;28;20021;-84
2021/01/13 05:23:55;;;;;;;21.48;2.30;;;2.60;99.90;;;;;;5009423;28;20030;-84
2021/01/13 05:26:27;;;;;;;21.92;2.45;;;2.70;99.90;;;;;;5013103;28;20030;-84
2021/01/13 05:29:05;;;;;;;12.30;2.22;;;2.70;99.90;;;;;;4992836;28;20514;-84
2021/01/13 05:31:36;;;;;;;9.20;3.13;;;2.70;99.90;;;;;;5015199;28;20550;-83
2021/01/13 05:34:05;;;;;;;22.63;2.35;;;2.70;99.90;;;;;;5002118;28;20753;-83
2021/01/13 05:36:31;;;;;;;11.70;2.72;;;2.70;99.90;;;;;;4985115;28;20066;-84
2021/01/13 05:39:10;;;;;;;18.42;2.83;;;2.70;99.90;;;;;;4985008;28;20044;-83
2021/01/13 05:41:37;;;;;;;17.08;2.95;;;2.70;99.90;;;;;;5006998;28;20439;-81
2021/01/13 05:44:05;;;;;;;15.68;2.70;;;2.70;99.90;;;;;;4993167;28;20057;-81
2021/01/13 05:46:49;;;;;;;27.85;3.60;;;2.80;99.90;;;;;;4990415;28;20030;-81
2021/01/13 05:49:16;;;;;;;17.58;3.13;;;2.80;99.90;;;;;;4989314;28;20029;-81
2021/01/13 05:51:43;;;;;;;15.15;2.70;;;2.80;99.90;;;;;;4979340;28;20029;-83
2021/01/13 05:54:14;;;;;;;13.18;2.92;;;2.80;99.90;;;;;;4974767;28;20030;-84
2021/01/13 05:56:40;;;;;;;9.27;2.63;;;2.80;99.90;;;;;;4985583;28;20038;-84
2021/01/13 05:59:07;;;;;;;22.92;2.63;;;2.80;99.90;;;;;;4989480;28;20038;-83
2021/01/13 06:01:42;;;;;;;19.52;2.45;;;2.80;99.90;;;;;;4990494;28;20058;-84
2021/01/13 06:04:09;;;;;;;29.85;2.90;;;2.80;99.90;;;;;;4985900;28;20030;-84
2021/01/13 06:06:41;;;;;;;14.57;2.75;;;2.80;99.90;;;;;;4985358;28;20025;-83
2021/01/13 06:09:11;;;;;;;20.65;2.10;;;2.70;99.90;;;;;;4979535;28;20034;-83
2021/01/13 06:11:40;;;;;;;20.45;2.92;;;2.80;99.90;;;;;;4984151;28;20028;-81
2021/01/13 06:14:06;;;;;;;12.65;2.47;;;2.80;99.90;;;;;;4998645;28;20022;-81
2021/01/13 06:16:32;;;;;;;9.95;2.22;;;2.80;99.90;;;;;;5007003;28;20088;-81
2021/01/13 06:18:59;;;;;;;17.30;2.85;;;2.90;99.90;;;;;;4985312;28;20046;-82
2021/01/13 06:21:24;;;;;;;17.10;2.75;;;2.90;99.90;;;;;;5003312;28;20057;-80
2021/01/13 06:23:51;;;;;;;15.82;2.58;;;2.90;99.90;;;;;;4980364;28;20058;-81
2021/01/13 06:26:19;;;;;;;12.48;2.83;;;2.80;99.90;;;;;;5000738;28;20038;-80
2021/01/13 06:29:20;;;;;;;12.75;4.65;;;2.80;99.90;;;;;;4996978;28;20037;-81
2021/01/13 06:31:52;;;;;;;20.27;2.78;;;2.80;99.90;;;;;;4995460;28;20030;-80
2021/01/13 06:34:33;;;;;;;8.02;2.42;;;2.70;99.90;;;;;;4970269;28;20039;-81
2021/01/13 06:37:21;;;;;;;20.80;2.22;;;2.70;99.90;;;;;;4985568;28;20471;-80
2021/01/13 06:39:46;;;;;;;23.85;3.05;;;2.60;99.90;;;;;;4987720;28;20030;-81
2021/01/13 06:42:12;;;;;;;19.52;3.38;;;2.60;99.90;;;;;;4993668;28;20080;-80
2021/01/13 06:44:46;;;;;;;13.73;2.88;;;2.60;99.90;;;;;;5008674;28;20030;-81
2021/01/13 06:47:12;;;;;;;23.52;2.75;;;2.70;99.90;;;;;;4995713;28;20109;-81
2021/01/13 06:49:38;;;;;;;37.88;4.00;;;2.80;99.90;;;;;;4989060;28;20120;-81
2021/01/13 06:52:07;;;;;;;26.80;4.80;;;2.70;99.90;;;;;;4982620;28;20033;-80
2021/01/13 06:54:43;;;;;;;35.83;3.45;;;2.80;99.90;;;;;;4978247;28;20482;-80
2021/01/13 06:57:11;;;;;;;17.85;3.10;;;2.80;99.90;;;;;;5009810;28;20045;-80
2021/01/13 06:59:38;;;;;;;21.00;5.50;;;2.80;99.90;;;;;;4987901;28;20051;-80
2021/01/13 07:02:04;;;;;;;13.25;2.95;;;2.80;99.90;;;;;;4987525;28;20033;-80
2021/01/13 07:04:42;;;;;;;30.67;4.68;;;2.80;99.90;;;;;;4980312;28;20379;-80
2021/01/13 07:07:08;;;;;;;25.70;3.83;;;2.80;99.90;;;;;;4994657;28;20395;-81
2021/01/13 07:09:39;;;;;;;14.00;3.30;;;2.90;99.90;;;;;;4980323;28;20038;-80
2021/01/13 07:12:08;;;;;;;19.25;3.88;;;2.90;99.90;;;;;;4990397;28;20053;-81
2021/01/13 07:14:36;;;;;;;29.85;4.13;;;2.90;99.90;;;;;;4989719;28;20038;-80
2021/01/13 07:17:06;;;;;;;20.95;4.05;;;2.90;99.90;;;;;;4990376;28;20185;-83
2021/01/13 07:19:34;;;;;;;15.70;4.05;;;3.00;99.90;;;;;;4986443;28;20475;-83
2021/01/13 07:22:00;;;;;;;19.60;3.63;;;3.00;99.90;;;;;;4984776;28;20035;-83
2021/01/13 07:24:28;;;;;;;20.52;4.15;;;3.00;99.90;;;;;;5000554;28;20032;-82
2021/01/13 07:26:57;;;;;;;41.22;4.07;;;3.00;99.90;;;;;;4990692;28;20144;-81
2021/01/13 07:29:25;;;;;;;18.70;3.20;;;3.00;99.90;;;;;;4991281;28;20025;-82
2021/01/13 07:31:54;;;;;;;26.65;2.95;;;3.00;99.90;;;;;;4984601;28;20541;-82
2021/01/13 07:34:29;;;;;;;21.35;3.33;;;3.00;99.90;;;;;;4991685;28;20527;-82
2021/01/13 07:37:17;;;;;;;17.52;3.35;;;3.00;99.90;;;;;;4995716;28;20052;-81
2021/01/13 07:40:01;;;;;;;22.77;3.50;;;3.00;99.90;;;;;;4991312;28;20133;-81
2021/01/13 07:42:41;;;;;;;21.05;2.80;;;3.00;99.90;;;;;;4993864;28;20503;-81
2021/01/13 07:45:11;;;;;;;13.63;2.90;;;3.00;99.90;;;;;;4991867;28;20026;-81
2021/01/13 07:48:34;;;;;;;23.60;3.35;;;3.00;99.90;;;;;;4988773;28;20045;-81
2021/01/13 07:51:07;;;;;;;22.45;3.08;;;2.90;99.90;;;;;;4937722;28;20047;-81
2021/01/13 07:53:37;;;;;;;21.42;3.45;;;2.90;99.90;;;;;;4923186;28;20065;-81
2021/01/13 07:56:03;;;;;;;25.38;5.05;;;3.00;99.90;;;;;;4927868;28;20054;-83
2021/01/13 07:58:34;;;;;;;8.63;2.20;;;2.90;99.90;;;;;;4940725;28;20063;-83
2021/01/13 08:01:39;;;;;;;16.15;3.45;;;2.90;99.90;;;;;;4931511;28;20043;-83
2021/01/13 08:04:26;;;;;;;10.57;2.38;;;2.90;99.90;;;;;;4925377;28;20019;-83
2021/01/13 08:06:53;;;;;;;18.63;5.75;;;3.00;99.90;;;;;;4922908;29;20035;-83
2021/01/13 08:09:22;;;;;;;20.40;2.83;;;3.00;99.90;;;;;;4925986;28;20069;-83
2021/01/13 08:12:06;;;;;;;22.73;2.85;;;3.00;99.90;;;;;;4921536;28;20440;-83
2021/01/13 08:14:52;;;;;;;14.93;2.67;;;3.10;99.90;;;;;;4923713;28;20126;-81
2021/01/13 08:17:46;;;;;;;13.77;2.50;;;3.10;99.90;;;;;;4935491;28;21466;-83
2021/01/13 08:20:42;;;;;;;10.70;3.03;;;3.10;99.90;;;;;;4930177;28;20115;-84
2021/01/13 08:25:55;;;;;;;23.48;2.97;;;3.10;99.90;;;;;;4997828;28;20517;-83
2021/01/13 08:28:22;;;;;;;19.40;2.25;;;3.20;99.90;;;;;;4996375;28;21356;-84
2021/01/13 08:30:48;;;;;;;23.27;2.88;;;3.20;99.90;;;;;;4998261;28;20491;-83
2021/01/13 08:33:25;;;;;;;21.17;3.33;;;3.30;99.90;;;;;;5003652;28;20040;-84
2021/01/13 08:36:01;;;;;;;15.18;2.40;;;3.40;99.90;;;;;;5002518;28;20030;-83
2021/01/13 08:38:28;;;;;;;10.77;2.25;;;3.40;99.90;;;;;;5001284;28;20376;-84
2021/01/13 08:40:54;;;;;;;16.33;3.35;;;3.50;99.90;;;;;;4994319;28;20112;-85
2021/01/13 08:43:23;;;;;;;18.10;3.08;;;3.50;99.90;;;;;;5003512;28;20058;-84
2021/01/13 08:45:50;;;;;;;18.95;2.90;;;3.60;99.90;;;;;;5000957;28;20029;-83
2021/01/13 08:48:18;;;;;;;16.10;2.83;;;3.70;99.90;;;;;;4997999;28;20363;-83
2021/01/13 08:51:06;;;;;;;16.83;2.50;;;3.60;99.90;;;;;;4997648;28;20026;-84
2021/01/13 08:53:32;;;;;;;16.08;3.10;;;3.60;99.90;;;;;;4995181;28;20045;-83
2021/01/13 08:55:59;;;;;;;28.52;3.40;;;3.60;99.90;;;;;;4996544;28;20137;-84
2021/01/13 08:58:32;;;;;;;25.50;4.28;;;3.70;99.90;;;;;;4995532;28;20129;-81
2021/01/13 09:01:05;;;;;;;23.50;2.95;;;3.70;99.90;;;;;;4991187;28;20041;-81
2021/01/13 09:03:41;;;;;;;22.77;3.47;;;3.70;99.90;;;;;;5002550;28;20160;-84
2021/01/13 09:06:20;;;;;;;18.23;3.08;;;3.70;99.90;;;;;;5007590;28;20068;-84
2021/01/13 09:08:53;;;;;;;22.52;3.30;;;3.70;99.90;;;;;;5009562;28;20042;-84
2021/01/13 09:11:32;;;;;;;12.10;2.88;;;3.70;99.90;;;;;;4996050;28;20037;-81
2021/01/13 09:14:18;;;;;;;33.22;4.55;;;3.80;99.90;;;;;;4998517;28;20046;-81
2021/01/13 09:16:51;;;;;;;27.65;3.53;;;3.90;99.90;;;;;;4998881;28;20073;-84
2021/01/13 09:19:34;;;;;;;25.90;3.08;;;4.00;99.90;;;;;;5001656;28;20050;-83
2021/01/13 09:22:06;;;;;;;20.98;3.38;;;4.00;99.90;;;;;;5000767;28;20043;-83
2021/01/13 09:24:42;;;;;;;31.13;3.58;;;4.10;99.90;;;;;;5000949;28;20374;-83
2021/01/13 09:27:12;;;;;;;20.40;2.50;;;4.20;99.90;;;;;;5001295;28;20058;-81
2021/01/13 09:29:49;;;;;;;28.52;3.55;;;4.20;99.90;;;;;;5002041;28;20108;-80
2021/01/13 09:32:16;;;;;;;28.08;3.65;;;4.20;99.90;;;;;;5020851;28;20037;-84
2021/01/13 09:34:43;;;;;;;18.48;3.00;;;4.30;99.90;;;;;;5013104;28;20034;-83
2021/01/13 09:37:08;;;;;;;27.63;3.80;;;4.30;99.90;;;;;;5013861;28;20082;-83
2021/01/13 09:39:38;;;;;;;30.25;4.40;;;4.50;99.90;;;;;;4999015;28;21847;-83
2021/01/13 09:42:05;;;;;;;24.85;4.32;;;4.50;99.90;;;;;;4995623;28;20030;-83
2021/01/13 09:44:33;;;;;;;26.13;2.97;;;4.40;99.90;;;;;;4999082;28;20406;-83
2021/01/13 09:47:23;;;;;;;25.40;4.03;;;4.40;99.90;;;;;;5002838;28;20053;-83
2021/01/13 09:49:50;;;;;;;22.80;3.25;;;4.30;99.90;;;;;;4998208;28;20196;-83
2021/01/13 09:52:16;;;;;;;20.85;4.38;;;4.20;99.90;;;;;;5006113;28;20406;-83
2021/01/13 09:54:49;;;;;;;21.77;3.35;;;4.30;99.90;;;;;;4999178;28;20037;-83
2021/01/13 09:57:16;;;;;;;41.55;3.40;;;4.40;99.90;;;;;;5003386;28;20163;-83
2021/01/13 10:00:14;;;;;;;22.33;4.43;;;4.30;99.90;;;;;;5003878;28;20424;-84
2021/01/13 10:02:41;;;;;;;28.13;3.90;;;4.50;99.90;;;;;;4947431;28;20043;-83
2021/01/13 10:05:07;;;;;;;30.95;3.10;;;4.70;99.90;;;;;;4944484;28;20034;-83
2021/01/13 10:07:35;;;;;;;23.70;2.45;;;5.00;99.90;;;;;;4958288;28;20118;-83
2021/01/13 10:10:04;;;;;;;25.67;3.85;;;5.50;99.90;;;;;;4945301;28;20039;-84
2021/01/13 10:12:41;;;;;;;18.05;2.72;;;5.70;99.90;;;;;;4945926;28;20518;-83
2021/01/13 10:15:12;;;;;;;25.25;3.50;;;6.30;99.90;;;;;;4947006;28;20130;-83
2021/01/13 10:17:47;;;;;;;21.65;3.10;;;6.80;99.90;;;;;;4939892;28;20046;-83
2021/01/13 10:20:19;;;;;;;15.48;2.60;;;6.90;99.90;;;;;;4942214;28;20059;-83
2021/01/13 10:22:46;;;;;;;9.98;2.17;;;6.90;99.90;;;;;;4950295;28;20496;-83
2021/01/13 10:25:27;;;;;;;26.27;2.40;;;6.40;99.90;;;;;;4953856;28;20062;-84
2021/01/13 10:27:53;;;;;;;18.65;2.60;;;5.90;99.90;;;;;;4913283;28;20100;-83
2021/01/13 10:30:19;;;;;;;15.68;2.40;;;5.90;99.90;;;;;;4905905;29;20032;-82
2021/01/13 10:32:56;;;;;;;20.17;3.03;;;6.10;99.90;;;;;;4909187;29;20038;-82
2021/01/13 10:35:24;;;;;;;20.70;3.55;;;5.80;99.90;;;;;;4911808;29;20044;-83
2021/01/13 10:37:52;;;;;;;31.58;4.18;;;6.20;99.90;;;;;;4925084;28;20054;-83
2021/01/13 10:40:19;;;;;;;31.75;4.15;;;6.40;99.90;;;;;;4964919;28;20061;-83
2021/01/13 10:42:49;;;;;;;17.02;3.45;;;6.80;99.90;;;;;;4965032;28;20117;-83
2021/01/13 10:45:16;;;;;;;24.95;3.45;;;7.30;99.90;;;;;;4966788;28;20030;-83
2021/01/13 10:47:55;;;;;;;28.35;3.08;;;6.90;99.90;;;;;;4979598;28;20039;-83
2021/01/13 10:50:29;;;;;;;18.73;2.42;;;6.40;99.90;;;;;;4965541;28;20108;-82
2021/01/13 10:52:57;;;;;;;21.80;3.10;;;6.20;99.90;;;;;;4959624;28;20440;-83
2021/01/13 10:55:25;;;;;;;15.70;2.80;;;5.90;99.90;;;;;;4964341;28;20034;-83
2021/01/13 10:57:51;;;;;;;20.33;3.30;;;6.50;99.90;;;;;;4981590;28;20044;-83
2021/01/13 11:00:18;;;;;;;24.88;2.63;;;7.00;99.90;;;;;;4962510;28;20063;-83
2021/01/13 11:02:51;;;;;;;20.98;3.17;;;6.60;99.90;;;;;;4979688;28;20036;-83
2021/01/13 11:05:19;;;;;;;23.67;3.08;;;6.80;99.90;;;;;;4973443;28;20543;-84
2021/01/13 11:07:47;;;;;;;26.90;3.15;;;6.60;99.90;;;;;;4974579;28;20060;-83
2021/01/13 11:10:14;;;;;;;24.40;3.00;;;6.50;99.90;;;;;;4975702;28;20018;-83
2021/01/13 11:12:40;;;;;;;27.42;3.53;;;6.60;99.90;;;;;;4964547;28;20039;-83
2021/01/13 11:15:08;;;;;;;20.50;2.60;;;7.20;99.90;;;;;;4988601;28;20030;-81
2021/01/13 11:17:35;;;;;;;16.98;2.60;;;8.60;99.90;;;;;;4967584;28;20031;-82
2021/01/13 11:20:02;;;;;;;13.82;2.40;;;8.20;99.90;;;;;;4980526;28;20040;-82
2021/01/13 11:22:48;;;;;;;12.05;2.67;;;7.50;99.90;;;;;;4976489;28;20121;-82
2021/01/13 11:25:33;;;;;;;22.98;2.83;;;6.90;99.90;;;;;;4979064;28;20022;-82
2021/01/13 11:28:07;;;;;;;20.85;2.40;;;6.30;99.90;;;;;;4986528;28;20051;-83
2021/01/13 11:30:36;;;;;;;22.95;2.35;;;6.30;99.90;;;;;;4980362;28;20667;-83
2021/01/13 11:33:04;;;;;;;20.17;2.50;;;6.60;99.90;;;;;;4977224;28;20092;-82
2021/01/13 11:35:32;;;;;;;15.25;2.60;;;6.50;99.90;;;;;;4979678;28;20442;-82
2021/01/13 11:38:35;;;;;;;14.68;2.28;;;6.30;99.90;;;;;;4979899;28;20041;-81
2021/01/13 11:41:25;;;;;;;15.30;3.75;;;6.10;99.90;;;;;;4906734;29;20138;-82
2021/01/13 11:43:58;;;;;;;28.47;4.87;;;6.20;99.90;;;;;;4908791;29;20168;-83
2021/01/13 11:46:42;;;;;;;22.02;2.70;;;6.00;99.90;;;;;;4933829;29;20048;-84
2021/01/13 11:49:26;;;;;;;21.58;2.83;;;6.00;99.90;;;;;;4911964;29;20039;-83
2021/01/13 11:51:53;;;;;;;19.50;2.13;;;6.80;99.90;;;;;;4907934;29;20586;-83
2021/01/13 11:54:41;;;;;;;17.63;2.55;;;6.60;99.90;;;;;;4906219;29;20027;-82
2021/01/13 11:57:25;;;;;;;21.17;2.70;;;7.10;99.90;;;;;;4905397;29;20043;-83
2021/01/13 12:00:18;;;;;;;20.63;2.78;;;7.30;99.90;;;;;;4908033;29;20031;-83
2021/01/13 12:02:51;;;;;;;16.67;2.65;;;7.40;99.90;;;;;;4918469;29;20019;-83
2021/01/13 12:05:31;;;;;;;22.70;2.95;;;7.10;99.90;;;;;;4910885;29;20043;-82
2021/01/13 12:08:03;;;;;;;26.00;3.10;;;7.00;99.90;;;;;;4904181;29;20038;-82
2021/01/13 12:10:41;;;;;;;25.45;3.85;;;7.40;99.90;;;;;;4921848;29;20583;-80
2021/01/13 12:13:27;;;;;;;22.10;2.67;;;7.90;99.90;;;;;;4914855;29;20059;-80
2021/01/13 12:16:00;;;;;;;16.02;2.60;;;8.10;99.90;;;;;;4909200;29;20044;-84
2021/01/13 12:18:29;;;;;;;24.27;2.97;;;7.90;99.90;;;;;;4963634;28;20049;-83
2021/01/13 12:21:27;;;;;;;25.92;3.63;;;7.60;99.90;;;;;;4995171;28;20125;-83
2021/01/13 12:24:11;;;;;;;15.15;3.28;;;7.30;99.90;;;;;;4997086;28;21376;-82
2021/01/13 12:26:38;;;;;;;14.23;2.13;;;6.90;99.90;;;;;;4995323;28;20149;-84
2021/01/13 12:29:04;;;;;;;24.38;2.83;;;6.80;99.90;;;;;;4991065;28;20030;-83
2021/01/13 12:31:34;;;;;;;22.67;3.70;;;6.50;99.90;;;;;;4986037;28;20458;-81
2021/01/13 12:33:59;;;;;;;16.45;2.17;;;6.50;99.90;;;;;;4987714;28;20094;-83
2021/01/13 12:36:30;;;;;;;18.58;2.63;;;6.50;99.90;;;;;;4981936;28;21696;-80
2021/01/13 12:38:58;;;;;;;28.10;3.20;;;6.60;99.90;;;;;;4972912;28;20029;-80
2021/01/13 12:41:25;;;;;;;24.55;3.47;;;6.50;99.90;;;;;;4979468;28;20025;-85
2021/01/13 12:43:53;;;;;;;25.95;3.03;;;6.60;99.90;;;;;;4989117;28;20033;-82
2021/01/13 12:46:29;;;;;;;23.15;3.30;;;6.70;99.90;;;;;;4989047;28;20502;-80
2021/01/13 12:48:57;;;;;;;23.75;2.70;;;6.90;99.90;;;;;;4997091;28;20066;-80
2021/01/13 12:51:25;;;;;;;21.25;2.88;;;7.00;99.90;;;;;;4967097;28;20038;-80
2021/01/13 12:53:57;;;;;;;12.90;2.63;;;6.90;99.90;;;;;;5000076;28;20483;-80
2021/01/13 12:56:36;;;;;;;19.60;2.72;;;6.70;99.90;;;;;;4983614;28;20038;-82
2021/01/13 12:59:03;;;;;;;27.75;3.15;;;6.70;99.90;;;;;;4985350;28;20140;-82
2021/01/13 13:01:36;;;;;;;39.05;3.00;;;6.60;99.90;;;;;;4980028;28;20030;-82
2021/01/13 13:04:02;;;;;;;20.15;2.38;;;6.60;99.90;;;;;;4981896;28;20090;-82
2021/01/13 13:06:29;;;;;;;17.38;2.88;;;6.70;99.90;;;;;;4977482;28;20042;-81
2021/01/13 13:08:56;;;;;;;32.70;2.97;;;6.50;99.90;;;;;;4978383;28;20474;-79
2021/01/13 13:11:24;;;;;;;23.05;2.85;;;6.50;99.90;;;;;;4979302;28;20067;-80
2021/01/13 13:13:50;;;;;;;28.55;3.65;;;6.40;99.90;;;;;;4984804;28;20045;-80
2021/01/13 13:16:15;;;;;;;20.00;2.78;;;6.30;99.90;;;;;;4985065;28;20030;-82